Webcam Richtung Westen

Webcam27

Webcam Richtung Norden

Webcam36

Webcam Richtung Osten

Webcam09

Wetter(Würzburg):
192200Z AUTO 24004G06KT 58KM ////// 11/09 Q1020
		
Wed 20.10.2021, 22:00 UTC

Sichtweite bis zu 58 km
Wind aus 240° mit 04kt, in Böen bis zu 06kt

Temperatur: 11 °C
Taupunkt: 9 °C
QNH: 1020 hPa
                         Heute        Morgen
                         20.10        21.10
--------------------------------------------
Beginn der Dämmerung     05:17        05:18
Sonnenaufgang            05:49        05:51
Sonnenuntergang          16:20        16:19
Ende der Dämmerung       16:53        16:51

Alle Zeiten in UTC